Time;durP1;ratioP1;P1;durP2;ratioP2;P2;SDS_P1;SDS_P2;PMS_P1;PMS_P2;Temp;Humidity;BMP_temperature;BMP_pressure;BME280_temperature;BME280_humidity;BME280_pressure;Samples;Min_cycle;Max_cycle;Signal;HPM_P1;HPM_P2
2022/03/01 00:01:19;;;;;;;22.38;11.32;;;;;;;2.47;96.00;102512.66;5083100;28;20025;-83
2022/03/01 00:03:44;;;;;;;29.58;11.02;;;;;;;2.41;95.96;102521.78;5097772;28;20015;-82
2022/03/01 00:06:10;;;;;;;18.55;10.23;;;;;;;2.46;96.64;102517.19;5090416;28;20039;-82
2022/03/01 00:08:35;;;;;;;21.60;10.85;;;;;;;2.50;95.27;102524.28;5066237;28;20021;-82
2022/03/01 00:11:01;;;;;;;33.00;11.50;;;;;;;2.54;95.32;102515.22;5072923;28;20651;-83
2022/03/01 00:13:26;;;;;;;22.00;11.18;;;;;;;2.60;93.77;102519.59;5097785;28;20023;-83
2022/03/01 00:15:52;;;;;;;21.88;11.10;;;;;;;2.52;94.26;102510.75;5088626;28;20036;-83
2022/03/01 00:18:17;;;;;;;20.27;10.52;;;;;;;2.52;94.27;102508.94;5080576;28;20059;-83
2022/03/01 00:20:43;;;;;;;22.90;11.38;;;;;;;2.47;96.24;102520.75;5091918;28;20043;-83
2022/03/01 00:23:08;;;;;;;23.15;10.90;;;;;;;2.47;95.21;102529.75;5113071;28;20111;-84
2022/03/01 00:25:34;;;;;;;25.75;10.48;;;;;;;2.50;94.34;102523.41;5099125;28;20036;-84
2022/03/01 00:28:00;;;;;;;22.25;10.68;;;;;;;2.48;94.32;102530.66;5082009;28;20024;-84
2022/03/01 00:30:25;;;;;;;24.23;12.57;;;;;;;2.52;94.05;102527.84;5065532;28;20028;-83
2022/03/01 00:32:50;;;;;;;25.75;11.13;;;;;;;2.46;94.83;102509.06;5069969;28;20036;-83
2022/03/01 00:35:17;;;;;;;23.13;11.25;;;;;;;2.47;93.67;102524.34;5072418;28;20029;-83
2022/03/01 00:37:42;;;;;;;21.15;10.35;;;;;;;2.49;94.14;102522.53;5062936;28;20016;-83
2022/03/01 00:40:08;;;;;;;27.55;11.50;;;;;;;2.47;94.28;102521.66;5082045;28;20043;-83
2022/03/01 00:42:34;;;;;;;26.70;10.90;;;;;;;2.38;95.17;102525.41;5071341;28;20029;-82
2022/03/01 00:44:59;;;;;;;22.65;10.77;;;;;;;2.45;94.14;102533.44;5101173;28;20385;-83
2022/03/01 00:47:26;;;;;;;24.95;10.82;;;;;;;2.42;93.39;102528.06;5062620;28;20060;-83
2022/03/01 00:49:52;;;;;;;21.90;10.60;;;;;;;2.45;94.11;102528.91;5088229;28;20028;-84
2022/03/01 00:52:17;;;;;;;20.48;10.50;;;;;;;2.38;94.52;102509.19;5080219;28;20024;-82
2022/03/01 00:54:43;;;;;;;25.60;11.27;;;;;;;2.44;93.04;102512.72;5062315;28;20040;-82
2022/03/01 00:57:08;;;;;;;24.08;11.00;;;;;;;2.45;92.93;102507.28;5094952;28;20037;-81
2022/03/01 00:59:34;;;;;;;23.02;10.65;;;;;;;2.38;93.50;102520.00;5063209;28;20037;-81
2022/03/01 01:01:59;;;;;;;22.83;10.45;;;;;;;2.41;93.50;102521.78;5079289;28;20033;-81
2022/03/01 01:04:25;;;;;;;26.30;11.20;;;;;;;2.38;94.02;102521.84;5063297;28;20025;-82
2022/03/01 01:06:51;;;;;;;23.52;11.00;;;;;;;2.35;93.97;102530.88;5062953;28;20043;-82
2022/03/01 01:09:16;;;;;;;24.67;10.93;;;;;;;2.26;94.28;102522.91;5080930;28;20432;-81
2022/03/01 01:11:43;;;;;;;26.02;11.68;;;;;;;2.24;94.59;102523.88;5079473;28;20070;-82
2022/03/01 01:14:08;;;;;;;23.88;12.45;;;;;;;2.05;95.19;102501.69;5079989;28;20035;-82
2022/03/01 01:16:34;;;;;;;26.65;12.35;;;;;;;2.18;95.08;102511.34;5089969;28;20050;-82
2022/03/01 01:18:59;;;;;;;24.83;11.80;;;;;;;2.17;94.64;102507.75;5092012;28;20032;-82
2022/03/01 01:22:39;;;;;;;24.52;11.80;;;;;;;2.16;94.04;102503.25;5076747;28;20028;-82
2022/03/01 01:24:11;;;;;;;21.67;11.00;;;;;;;2.18;95.90;102512.25;5100373;28;20040;-82
2022/03/01 01:26:36;;;;;;;23.60;10.75;;;;;;;2.16;95.84;102513.19;5053913;28;20389;-82
2022/03/01 01:29:02;;;;;;;24.50;11.57;;;;;;;2.06;96.20;102514.28;5071889;28;20048;-83
2022/03/01 01:31:27;;;;;;;23.50;11.68;;;;;;;2.19;95.37;102508.63;5112932;28;20036;-82
2022/03/01 01:33:53;;;;;;;24.00;11.43;;;;;;;2.13;95.83;102507.84;5078729;28;20603;-81
2022/03/01 01:36:18;;;;;;;24.05;11.05;;;;;;;2.08;95.36;102512.44;5065852;28;20055;-81
2022/03/01 01:38:44;;;;;;;25.27;11.10;;;;;;;1.99;97.08;102508.97;5077816;28;20103;-81
2022/03/01 01:41:09;;;;;;;24.00;12.45;;;;;;;1.96;98.52;102510.84;5079205;28;20666;-80
2022/03/01 01:43:34;;;;;;;18.98;11.13;;;;;;;1.83;97.87;102500.22;5074563;28;20035;-81
2022/03/01 01:46:00;;;;;;;23.55;11.48;;;;;;;1.82;99.02;102502.94;5059624;28;20496;-81
2022/03/01 01:48:25;;;;;;;23.90;12.43;;;;;;;1.82;98.84;102498.44;5088981;28;20492;-81
2022/03/01 01:50:51;;;;;;;25.67;10.98;;;;;;;1.65;97.76;102469.00;5083400;28;20032;-81
2022/03/01 01:53:17;;;;;;;27.20;12.70;;;;;;;1.81;98.91;102501.19;5077342;28;20040;-81
2022/03/01 01:55:43;;;;;;;28.65;12.48;;;;;;;1.85;98.18;102497.50;5083781;28;20036;-80
2022/03/01 01:58:08;;;;;;;23.13;11.20;;;;;;;1.85;99.92;102505.59;5084542;28;20539;-81
2022/03/01 02:00:33;;;;;;;26.60;11.32;;;;;;;1.72;99.31;102491.41;5062961;28;20025;-81
2022/03/01 02:02:59;;;;;;;23.52;11.63;;;;;;;1.87;97.80;102501.09;5062670;28;21685;-81
2022/03/01 02:05:26;;;;;;;25.50;11.90;;;;;;;1.92;99.03;102510.00;5062402;28;20369;-81
2022/03/01 02:07:51;;;;;;;25.58;11.90;;;;;;;1.92;99.24;102503.69;5072060;28;20059;-81
2022/03/01 02:10:17;;;;;;;26.30;11.75;;;;;;;1.77;99.82;102485.91;5079687;28;20024;-81
2022/03/01 02:12:43;;;;;;;24.23;12.35;;;;;;;1.80;99.42;102504.78;5078611;28;20033;-81
2022/03/01 02:15:09;;;;;;;29.25;12.00;;;;;;;1.76;100.00;102505.75;5075926;28;20032;-82
2022/03/01 02:17:38;;;;;;;35.03;12.30;;;;;;;1.67;100.00;102506.78;5079886;28;20043;-82
2022/03/01 02:20:10;;;;;;;26.83;11.88;;;;;;;1.65;100.00;102505.91;5082247;28;20071;-81
2022/03/01 02:22:35;;;;;;;25.05;11.23;;;;;;;1.68;100.00;102494.19;5068519;28;20059;-81
2022/03/01 02:25:01;;;;;;;25.40;11.82;;;;;;;1.61;100.00;102499.66;5062795;28;20037;-81
2022/03/01 02:27:26;;;;;;;25.95;13.45;;;;;;;1.68;100.00;102505.00;5051638;28;20125;-81
2022/03/01 02:29:51;;;;;;;25.63;12.27;;;;;;;1.58;100.00;102499.72;5104254;28;20064;-82
2022/03/01 02:32:17;;;;;;;27.85;12.57;;;;;;;1.59;100.00;102492.50;5076365;28;20025;-81
2022/03/01 02:34:42;;;;;;;26.55;12.48;;;;;;;1.63;100.00;102505.94;5084340;28;20024;-81
2022/03/01 02:37:08;;;;;;;26.35;11.85;;;;;;;1.45;100.00;102496.31;5073351;28;20062;-81
2022/03/01 02:39:33;;;;;;;24.83;13.43;;;;;;;1.58;100.00;102499.72;5082958;28;20044;-81
2022/03/01 02:42:00;;;;;;;24.02;12.25;;;;;;;1.49;100.00;102507.94;5089106;28;20070;-82
2022/03/01 02:44:26;;;;;;;22.75;12.18;;;;;;;1.45;100.00;102498.13;5061827;28;20041;-82
2022/03/01 02:46:51;;;;;;;32.05;13.35;;;;;;;1.50;100.00;102500.75;5079280;28;20091;-82
2022/03/01 02:49:17;;;;;;;28.88;13.02;;;;;;;1.49;100.00;102491.75;5101295;28;20135;-82
2022/03/01 02:51:42;;;;;;;27.40;12.95;;;;;;;1.45;100.00;102484.63;5078100;28;20038;-82
2022/03/01 02:54:09;;;;;;;33.85;12.85;;;;;;;1.56;100.00;102495.25;5082635;28;20036;-82
2022/03/01 02:56:35;;;;;;;30.35;13.73;;;;;;;1.40;100.00;102487.38;5082902;28;20048;-82
2022/03/01 02:59:00;;;;;;;25.83;12.80;;;;;;;1.41;100.00;102477.47;5087395;28;20024;-82
2022/03/01 03:01:26;;;;;;;30.17;14.15;;;;;;;1.53;100.00;102490.78;5065705;28;20032;-82
2022/03/01 03:03:52;;;;;;;27.45;13.50;;;;;;;1.54;100.00;102488.97;5078722;28;20438;-82
2022/03/01 03:06:18;;;;;;;28.63;13.13;;;;;;;1.46;100.00;102481.91;5079666;28;20054;-82
2022/03/01 03:08:44;;;;;;;30.48;13.07;;;;;;;1.28;100.00;102469.56;5076828;28;20037;-82
2022/03/01 03:11:09;;;;;;;27.20;12.70;;;;;;;1.09;100.00;102460.81;5108471;28;20098;-82
2022/03/01 03:13:36;;;;;;;24.67;12.48;;;;;;;1.12;100.00;102478.78;5076166;28;20031;-82
2022/03/01 03:16:02;;;;;;;32.53;13.82;;;;;;;0.98;100.00;102478.94;5075084;28;20024;-82
2022/03/01 03:18:28;;;;;;;27.35;13.15;;;;;;;0.96;100.00;102485.28;5097327;28;20031;-82
2022/03/01 03:20:53;;;;;;;30.63;13.20;;;;;;;0.90;100.00;102472.75;5096535;28;20045;-82
2022/03/01 03:23:19;;;;;;;31.83;13.93;;;;;;;0.73;100.00;102460.38;5085318;28;20139;-82
2022/03/01 03:25:44;;;;;;;30.17;13.73;;;;;;;0.83;100.00;102465.69;5085491;28;20045;-81
2022/03/01 03:28:10;;;;;;;28.45;13.57;;;;;;;0.94;100.00;102473.66;5094780;28;20020;-82
2022/03/01 03:30:35;;;;;;;29.58;12.60;;;;;;;0.94;100.00;102468.25;5104681;28;20053;-81
2022/03/01 03:33:00;;;;;;;28.02;13.23;;;;;;;0.85;100.00;102463.84;5075108;28;20048;-82
2022/03/01 03:35:26;;;;;;;23.05;12.60;;;;;;;0.86;100.00;102461.13;5069106;28;20029;-82
2022/03/01 03:37:51;;;;;;;30.67;14.35;;;;;;;1.03;100.00;102468.09;5075639;28;20033;-82
2022/03/01 03:40:17;;;;;;;26.52;12.25;;;;;;;0.96;100.00;102463.72;5091184;28;20020;-82
2022/03/01 03:42:44;;;;;;;27.42;13.63;;;;;;;0.94;100.00;102479.03;5076075;28;20096;-82
2022/03/01 03:45:10;;;;;;;30.60;13.90;;;;;;;0.91;100.00;102474.56;5100421;28;20051;-82
2022/03/01 03:47:36;;;;;;;28.20;13.48;;;;;;;0.84;100.00;102476.44;5095084;28;20045;-82
2022/03/01 03:50:02;;;;;;;27.40;14.40;;;;;;;0.85;100.00;102475.53;5094317;28;20035;-82
2022/03/01 03:52:28;;;;;;;29.17;13.85;;;;;;;0.75;100.00;102476.53;5061162;28;20070;-83
2022/03/01 03:54:53;;;;;;;27.35;13.00;;;;;;;0.75;100.00;102463.06;5102598;28;20028;-82
2022/03/01 03:57:19;;;;;;;33.33;14.10;;;;;;;0.75;100.00;102465.75;5074068;28;20041;-82
2022/03/01 03:59:44;;;;;;;32.92;14.32;;;;;;;0.65;100.00;102450.63;5080371;28;20031;-82
2022/03/01 04:02:10;;;;;;;41.63;14.18;;;;;;;0.83;100.00;102476.47;5113276;28;20036;-81
2022/03/01 04:04:36;;;;;;;29.35;13.63;;;;;;;0.86;100.00;102471.03;5090029;28;20028;-82
2022/03/01 04:07:03;;;;;;;30.33;13.30;;;;;;;0.89;100.00;102476.41;5063801;28;20718;-82
2022/03/01 04:09:28;;;;;;;31.23;13.95;;;;;;;0.89;100.00;102452.13;5104684;28;20032;-82
2022/03/01 04:11:54;;;;;;;28.70;13.68;;;;;;;0.87;100.00;102471.03;5080559;28;20033;-83
2022/03/01 04:14:20;;;;;;;28.40;14.40;;;;;;;0.96;100.00;102474.50;5089715;28;20036;-82
2022/03/01 04:16:46;;;;;;;26.25;13.70;;;;;;;0.93;100.00;102471.84;5068771;28;20004;-82
2022/03/01 04:19:11;;;;;;;25.60;13.80;;;;;;;0.87;100.00;102464.72;5080436;28;20029;-82
2022/03/01 04:21:38;;;;;;;32.55;14.07;;;;;;;0.87;100.00;102468.31;5080223;28;20043;-82
2022/03/01 04:24:04;;;;;;;27.60;13.75;;;;;;;0.74;100.00;102469.38;5064182;28;20066;-82
2022/03/01 04:26:30;;;;;;;31.77;13.13;;;;;;;0.75;100.00;102467.56;5080882;28;20383;-83
2022/03/01 04:28:56;;;;;;;25.35;13.73;;;;;;;0.71;100.00;102469.41;5090972;28;20028;-82
2022/03/01 04:31:22;;;;;;;35.22;14.38;;;;;;;0.70;100.00;102467.63;5068814;28;20353;-82
2022/03/01 04:33:48;;;;;;;29.38;14.30;;;;;;;0.70;100.00;102479.28;5081906;28;20068;-82
2022/03/01 04:36:14;;;;;;;26.75;14.38;;;;;;;0.64;100.00;102486.56;5079367;28;20031;-81
2022/03/01 04:38:40;;;;;;;30.63;13.82;;;;;;;0.67;100.00;102478.44;5092104;28;20088;-81
2022/03/01 04:41:06;;;;;;;30.13;14.85;;;;;;;0.62;100.00;102481.19;5086482;28;20063;-81
2022/03/01 04:43:32;;;;;;;25.23;13.52;;;;;;;0.63;100.00;102480.28;5079225;28;20029;-82
2022/03/01 04:45:57;;;;;;;32.28;14.50;;;;;;;0.62;100.00;102473.09;5083560;28;20078;-82
2022/03/01 04:48:23;;;;;;;29.98;14.05;;;;;;;0.54;100.00;102461.50;5097233;28;20048;-82
2022/03/01 04:50:50;;;;;;;34.75;14.13;;;;;;;0.50;100.00;102476.81;5080853;28;20036;-82
2022/03/01 04:53:16;;;;;;;30.05;14.48;;;;;;;0.48;100.00;102467.00;5077327;28;20043;-82
2022/03/01 04:55:42;;;;;;;36.38;21.50;;;;;;;0.51;100.00;102459.75;5077480;28;20074;-82
2022/03/01 04:58:08;;;;;;;34.42;15.00;;;;;;;0.58;100.00;102468.66;5089011;28;20490;-82
2022/03/01 05:00:34;;;;;;;29.27;13.77;;;;;;;0.59;100.00;102473.16;5060301;28;20032;-82
2022/03/01 05:03:00;;;;;;;30.73;14.20;;;;;;;0.62;100.00;102474.91;5080322;28;20071;-82
2022/03/01 05:05:25;;;;;;;25.30;13.27;;;;;;;0.67;100.00;102468.56;5064537;28;20028;-82
2022/03/01 05:07:52;;;;;;;33.42;14.60;;;;;;;0.61;100.00;102479.41;5084198;28;20040;-81
2022/03/01 05:10:19;;;;;;;28.25;14.13;;;;;;;0.67;100.00;102470.34;5102109;28;20024;-82
2022/03/01 05:12:53;;;;;;;26.88;13.27;;;;;;;0.65;100.00;102473.06;5093807;28;20495;-82
2022/03/01 05:15:19;;;;;;;29.42;14.23;;;;;;;0.71;100.00;102469.41;5077358;28;20398;-81
2022/03/01 05:17:46;;;;;;;28.13;14.18;;;;;;;0.73;100.00;102470.28;5080071;28;20047;-82
2022/03/01 05:20:12;;;;;;;24.58;13.20;;;;;;;0.52;100.00;102466.91;5080416;28;20035;-83
2022/03/01 05:22:39;;;;;;;30.27;15.18;;;;;;;0.51;100.00;102475.94;5047670;28;20059;-83
2022/03/01 05:25:06;;;;;;;25.60;12.88;;;;;;;0.55;100.00;102474.09;5083256;28;20050;-83
2022/03/01 05:27:32;;;;;;;30.02;14.25;;;;;;;0.55;100.00;102464.19;5096175;28;20044;-83
2022/03/01 05:29:58;;;;;;;24.15;13.07;;;;;;;0.69;100.00;102476.66;5082972;28;20040;-83
2022/03/01 05:32:23;;;;;;;30.05;13.70;;;;;;;0.63;100.00;102463.22;5079563;28;20021;-84
2022/03/01 05:34:49;;;;;;;31.92;12.85;;;;;;;0.64;100.00;102463.22;5079661;28;20040;-83
2022/03/01 05:37:15;;;;;;;33.35;14.52;;;;;;;0.61;100.00;102454.25;5074520;28;20409;-82
2022/03/01 05:39:40;;;;;;;28.00;13.40;;;;;;;0.65;100.00;102464.97;5090810;28;20080;-83
2022/03/01 05:42:08;;;;;;;31.05;14.18;;;;;;;0.62;100.00;102466.81;5085639;28;20045;-83
2022/03/01 05:44:34;;;;;;;25.55;13.27;;;;;;;0.53;100.00;102452.53;5075030;28;20025;-83
2022/03/01 05:46:59;;;;;;;27.30;13.85;;;;;;;0.70;100.00;102468.50;5075057;28;20179;-82
2022/03/01 05:49:25;;;;;;;34.28;14.73;;;;;;;0.69;100.00;102439.78;5065003;28;20099;-83
2022/03/01 05:51:50;;;;;;;32.55;13.35;;;;;;;0.76;100.00;102446.00;5070045;28;20035;-83
2022/03/01 05:54:16;;;;;;;29.33;12.65;;;;;;;0.83;100.00;102447.69;5082208;28;20534;-82
2022/03/01 05:56:41;;;;;;;27.45;12.52;;;;;;;0.61;100.00;102414.72;5074055;28;20024;-83
2022/03/01 05:59:07;;;;;;;28.90;13.88;;;;;;;0.74;100.00;102434.34;5079041;28;20476;-82
2022/03/01 06:01:33;;;;;;;32.65;13.10;;;;;;;0.91;100.00;102456.56;5089853;28;20044;-85
2022/03/01 06:03:58;;;;;;;30.77;12.80;;;;;;;0.89;100.00;102450.31;5080134;28;20042;-83
2022/03/01 06:06:24;;;;;;;30.35;12.35;;;;;;;0.90;100.00;102435.00;5059908;28;20128;-83
2022/03/01 06:08:50;;;;;;;23.75;12.63;;;;;;;0.94;100.00;102452.06;5076974;28;20036;-84
2022/03/01 06:11:15;;;;;;;33.03;14.43;;;;;;;0.87;100.00;102446.75;5097113;28;20036;-84
2022/03/01 06:13:43;;;;;;;26.90;13.45;;;;;;;0.96;100.00;102451.13;5063969;28;20036;-84
2022/03/01 06:16:09;;;;;;;29.92;13.07;;;;;;;0.97;100.00;102457.41;5085553;28;20041;-84
2022/03/01 06:18:34;;;;;;;32.30;12.93;;;;;;;0.99;100.00;102444.81;5076502;28;20047;-83
2022/03/01 06:21:01;;;;;;;29.77;13.32;;;;;;;0.97;100.00;102444.81;5099695;28;20033;-84
2022/03/01 06:23:28;;;;;;;30.52;15.18;;;;;;;0.94;100.00;102457.47;5084217;28;20545;-85
2022/03/01 06:25:54;;;;;;;32.58;14.73;;;;;;;0.94;100.00;102452.94;5084742;28;20055;-86
2022/03/01 06:28:19;;;;;;;29.92;13.98;;;;;;;1.01;100.00;102459.16;5067609;28;20488;-82
2022/03/01 06:30:45;;;;;;;29.55;15.05;;;;;;;0.96;100.00;102461.03;5089613;28;20095;-85
2022/03/01 06:33:11;;;;;;;33.28;14.82;;;;;;;0.98;100.00;102457.38;5081043;28;20127;-84
2022/03/01 06:35:36;;;;;;;30.27;14.32;;;;;;;0.81;100.00;102445.94;5080845;28;20027;-84
2022/03/01 06:38:03;;;;;;;27.90;13.27;;;;;;;0.77;100.00;102439.69;5097588;28;20047;-82
2022/03/01 06:40:29;;;;;;;28.60;13.65;;;;;;;0.82;100.00;102450.41;5110868;28;20044;-83
2022/03/01 06:42:55;;;;;;;31.55;13.70;;;;;;;0.93;100.00;102450.28;5091400;28;20050;-85
2022/03/01 06:45:21;;;;;;;29.65;13.40;;;;;;;0.91;100.00;102453.88;5065447;28;20094;-85
2022/03/01 06:47:47;;;;;;;37.30;14.18;;;;;;;0.97;100.00;102452.00;5081722;28;20043;-85
2022/03/01 06:50:13;;;;;;;26.52;13.15;;;;;;;0.95;100.00;102454.72;5085238;28;20043;-84
2022/03/01 06:52:38;;;;;;;27.80;13.75;;;;;;;0.88;100.00;102432.34;5092779;28;20032;-85
2022/03/01 06:55:06;;;;;;;28.98;12.38;;;;;;;1.18;100.00;102459.84;5078168;28;20021;-84
2022/03/01 06:57:34;;;;;;;31.10;13.23;;;;;;;1.30;100.00;102461.44;5065906;28;20034;-84
2022/03/01 07:00:00;;;;;;;28.05;12.40;;;;;;;1.39;100.00;102461.31;5096394;28;20031;-84
2022/03/01 07:02:26;;;;;;;33.05;14.10;;;;;;;1.44;100.00;102464.84;5085592;28;20037;-84
2022/03/01 07:04:56;;;;;;;37.97;13.98;;;;;;;1.52;100.00;102474.63;5094650;28;20063;-84
2022/03/01 07:07:22;;;;;;;30.15;13.82;;;;;;;1.52;100.00;102477.31;5077684;28;20037;-85
2022/03/01 07:09:48;;;;;;;32.28;13.45;;;;;;;1.61;100.00;102482.59;5077515;28;20043;-84
2022/03/01 07:12:15;;;;;;;25.17;12.43;;;;;;;1.68;100.00;102480.69;5109600;28;20414;-83
2022/03/01 07:14:41;;;;;;;34.67;13.35;;;;;;;1.68;100.00;102461.78;5095170;28;20563;-83
2022/03/01 07:17:06;;;;;;;34.88;12.25;;;;;;;1.79;100.00;102478.72;5095389;28;20051;-83
2022/03/01 07:19:32;;;;;;;29.10;12.60;;;;;;;1.92;100.00;102479.38;5062003;28;20458;-83
2022/03/01 07:21:58;;;;;;;30.23;12.57;;;;;;;1.94;100.00;102451.44;5093439;28;20513;-83
2022/03/01 07:24:23;;;;;;;35.00;13.82;;;;;;;2.49;100.00;102483.78;5097577;28;20395;-83
2022/03/01 07:26:49;;;;;;;32.50;13.93;;;;;;;2.50;100.00;102486.44;5094545;28;20045;-84
2022/03/01 07:29:15;;;;;;;33.78;13.55;;;;;;;2.67;100.00;102472.63;5078983;28;20107;-82
2022/03/01 07:31:40;;;;;;;33.22;13.35;;;;;;;2.81;100.00;102484.97;5077915;28;20033;-84
2022/03/01 07:34:06;;;;;;;32.38;14.05;;;;;;;2.84;100.00;102474.09;5057436;28;20118;-83
2022/03/01 07:36:31;;;;;;;32.92;14.00;;;;;;;2.80;97.76;102484.06;5081594;28;20119;-85
2022/03/01 07:38:57;;;;;;;26.10;13.32;;;;;;;2.98;99.05;102481.91;5084306;28;20074;-83
2022/03/01 07:41:22;;;;;;;36.00;13.23;;;;;;;2.91;97.17;102487.44;5104026;28;20040;-82
2022/03/01 07:43:48;;;;;;;31.15;14.23;;;;;;;2.83;98.13;102483.13;5099104;28;20356;-85
2022/03/01 07:46:14;;;;;;;32.05;13.07;;;;;;;3.00;96.90;102496.28;5097703;28;20020;-84
2022/03/01 07:48:41;;;;;;;39.97;14.68;;;;;;;3.02;96.73;102498.06;5080093;28;20108;-82
2022/03/01 07:51:06;;;;;;;29.17;13.55;;;;;;;2.92;97.95;102474.81;5079960;28;20024;-85
2022/03/01 07:53:32;;;;;;;32.92;14.43;;;;;;;3.13;97.44;102493.31;5101846;28;20107;-87
2022/03/01 07:55:58;;;;;;;38.30;14.82;;;;;;;3.29;95.98;102485.72;5074800;28;20071;-86
2022/03/01 07:58:23;;;;;;;35.80;14.07;;;;;;;3.28;94.71;102488.44;5112681;28;20055;-85
2022/03/01 08:00:49;;;;;;;32.55;14.02;;;;;;;3.44;95.71;102511.59;5064084;28;20040;-85
2022/03/01 08:03:14;;;;;;;39.30;15.93;;;;;;;3.42;96.89;102502.56;5101278;28;20121;-85
2022/03/01 08:05:39;;;;;;;34.50;14.88;;;;;;;3.55;97.25;102521.28;5071168;28;20115;-83
2022/03/01 08:08:05;;;;;;;40.35;15.50;;;;;;;3.41;96.11;102511.66;5087373;28;20089;-84
2022/03/01 08:10:31;;;;;;;38.83;15.38;;;;;;;3.58;95.52;102524.78;5097801;28;20060;-84
2022/03/01 08:12:57;;;;;;;40.97;15.40;;;;;;;3.60;97.11;102522.94;5066974;28;20029;-84
2022/03/01 08:15:25;;;;;;;34.65;14.70;;;;;;;3.47;96.67;102503.34;5069566;28;20123;-84
2022/03/01 08:17:52;;;;;;;37.65;16.10;;;;;;;3.56;97.24;102506.78;5068335;28;20037;-85
2022/03/01 08:20:18;;;;;;;42.20;16.02;;;;;;;3.41;98.44;102492.69;5080590;28;20028;-83
2022/03/01 08:22:45;;;;;;;34.65;15.75;;;;;;;3.42;97.52;102504.41;5064141;28;20032;-85
2022/03/01 08:25:10;;;;;;;40.22;16.50;;;;;;;3.24;99.80;102505.69;5099730;28;20047;-85
2022/03/01 08:27:36;;;;;;;40.97;15.80;;;;;;;3.34;98.18;102503.69;5065149;28;20029;-84
2022/03/01 08:30:02;;;;;;;41.03;16.40;;;;;;;3.31;99.16;102520.88;5081883;28;20043;-84
2022/03/01 08:32:27;;;;;;;37.00;15.20;;;;;;;3.33;98.82;102515.44;5097736;28;20483;-85
2022/03/01 08:34:53;;;;;;;35.97;15.70;;;;;;;3.27;98.02;102489.41;5086686;28;20040;-84
2022/03/01 08:37:18;;;;;;;42.03;16.38;;;;;;;3.34;99.05;102512.69;5091813;28;20404;-85
2022/03/01 08:39:43;;;;;;;37.85;15.25;;;;;;;3.50;97.66;102506.00;5098984;28;20044;-85
2022/03/01 08:42:10;;;;;;;37.90;16.02;;;;;;;3.46;97.96;102512.44;5084070;28;20052;-85
2022/03/01 08:44:35;;;;;;;43.53;16.83;;;;;;;3.60;97.97;102512.09;5081526;28;20044;-84
2022/03/01 08:47:01;;;;;;;44.28;16.08;;;;;;;3.69;96.17;102513.72;5069253;28;20037;-85
2022/03/01 08:49:26;;;;;;;35.17;15.10;;;;;;;3.67;98.25;102512.84;5054112;28;20041;-84
2022/03/01 08:51:52;;;;;;;39.75;16.05;;;;;;;3.65;98.24;102526.41;5079765;28;20562;-85
2022/03/01 08:54:19;;;;;;;36.08;16.75;;;;;;;3.79;97.34;102509.88;5047998;28;20076;-85
2022/03/01 08:56:44;;;;;;;41.33;16.15;;;;;;;3.88;95.45;102527.69;5097354;28;20110;-86
2022/03/01 08:59:10;;;;;;;38.88;15.63;;;;;;;3.97;95.72;102518.47;5067521;28;20033;-83
2022/03/01 09:01:35;;;;;;;40.80;14.88;;;;;;;3.93;95.07;102511.34;5066123;28;20054;-84
2022/03/01 09:04:01;;;;;;;38.53;15.95;;;;;;;3.84;96.67;102507.03;5068023;28;20052;-84
2022/03/01 09:06:27;;;;;;;38.95;15.40;;;;;;;3.94;95.19;102515.84;5099364;28;20029;-84
2022/03/01 09:08:52;;;;;;;40.25;15.90;;;;;;;4.02;96.58;102513.84;5082403;28;20032;-84
2022/03/01 09:11:18;;;;;;;34.42;15.50;;;;;;;4.02;95.89;102520.13;5083305;28;20056;-84
2022/03/01 09:13:43;;;;;;;40.58;16.20;;;;;;;4.07;96.86;102517.31;5103130;28;20580;-84
2022/03/01 09:16:09;;;;;;;35.33;15.70;;;;;;;4.20;93.92;102517.91;5065321;28;20040;-83
2022/03/01 09:18:36;;;;;;;42.30;14.95;;;;;;;4.01;94.08;102504.78;5108424;28;20032;-85
2022/03/01 09:21:03;;;;;;;42.13;16.27;;;;;;;4.21;93.88;102516.94;5070485;28;20117;-84
2022/03/01 09:23:29;;;;;;;38.13;16.23;;;;;;;4.28;94.46;102528.53;5084643;28;20069;-85
2022/03/01 09:25:54;;;;;;;44.05;15.80;;;;;;;4.32;94.71;102530.25;5081742;28;20044;-84
2022/03/01 09:28:20;;;;;;;42.88;17.08;;;;;;;4.21;93.92;102509.72;5074269;28;20040;-84
2022/03/01 09:30:45;;;;;;;39.67;15.95;;;;;;;4.56;93.03;102528.72;5079673;28;20044;-82
2022/03/01 09:33:12;;;;;;;46.38;16.15;;;;;;;4.62;93.37;102528.53;5083589;28;20044;-83
2022/03/01 09:35:38;;;;;;;42.47;16.05;;;;;;;4.76;90.50;102529.03;5075627;28;20032;-81
2022/03/01 09:38:03;;;;;;;60.03;18.35;;;;;;;4.67;92.42;102522.97;5104166;28;20028;-82
2022/03/01 09:40:28;;;;;;;47.83;17.40;;;;;;;4.78;91.97;102523.56;5084340;28;20033;-82
2022/03/01 09:42:54;;;;;;;44.58;19.17;;;;;;;4.79;93.25;102536.22;5084903;28;20051;-82
2022/03/01 09:45:21;;;;;;;37.85;17.58;;;;;;;4.97;92.81;102537.53;5105481;28;20043;-82
2022/03/01 09:47:47;;;;;;;40.83;17.17;;;;;;;5.25;90.78;102543.03;5092830;28;20072;-82
2022/03/01 09:50:13;;;;;;;41.10;17.33;;;;;;;5.24;89.41;102541.25;5061511;28;20024;-82
2022/03/01 09:52:40;;;;;;;40.30;17.05;;;;;;;5.24;89.94;102532.22;5081078;28;20040;-82
2022/03/01 09:55:07;;;;;;;42.75;17.08;;;;;;;5.50;87.51;102542.31;5063689;28;20036;-82
2022/03/01 09:57:33;;;;;;;43.78;17.65;;;;;;;5.58;87.65;102542.97;5057849;28;20135;-84
2022/03/01 09:59:59;;;;;;;34.80;15.48;;;;;;;6.33;84.61;102527.88;5088535;28;20082;-84
2022/03/01 10:02:39;;;;;;;41.72;16.15;;;;;;;6.61;81.97;102536.00;5102760;28;20066;-84
2022/03/01 10:05:08;;;;;;;33.42;16.25;;;;;;;6.35;82.66;102540.50;5090837;28;20037;-85
2022/03/01 10:07:34;;;;;;;40.45;17.95;;;;;;;6.36;81.63;102528.69;5079544;28;20021;-83
2022/03/01 10:10:08;;;;;;;50.60;17.60;;;;;;;6.56;82.99;102533.41;5097979;28;20048;-83
2022/03/01 10:12:34;;;;;;;44.50;18.38;;;;;;;6.52;83.52;102536.31;5091338;28;20059;-84
2022/03/01 10:15:06;;;;;;;44.25;17.48;;;;;;;6.49;81.55;102544.56;5079563;28;20048;-83
2022/03/01 10:17:37;;;;;;;45.33;17.85;;;;;;;6.22;83.20;102537.28;5059256;28;20037;-86
2022/03/01 10:20:08;;;;;;;40.45;17.10;;;;;;;6.36;81.15;102527.78;5067293;28;20032;-83
2022/03/01 10:22:36;;;;;;;36.17;15.68;;;;;;;6.76;79.21;102532.69;5079859;28;20028;-79
2022/03/01 10:25:04;;;;;;;43.63;17.15;;;;;;;7.13;79.48;102527.72;5096240;28;20070;-84
2022/03/01 10:27:30;;;;;;;45.67;17.92;;;;;;;7.38;79.00;102527.69;5080478;28;20090;-82
2022/03/01 10:29:55;;;;;;;42.45;17.65;;;;;;;7.28;78.06;102531.69;5080513;28;20021;-83
2022/03/01 10:32:21;;;;;;;39.60;17.27;;;;;;;6.94;78.05;102519.38;5077046;28;20029;-82
2022/03/01 10:34:59;;;;;;;40.35;18.25;;;;;;;7.16;76.20;102538.50;5078262;28;20097;-82
2022/03/01 10:37:26;;;;;;;44.03;17.35;;;;;;;6.96;77.18;102521.06;5096347;28;20049;-82
2022/03/01 10:40:08;;;;;;;47.38;18.15;;;;;;;6.88;77.16;102534.09;5076088;28;20137;-83
2022/03/01 10:42:34;;;;;;;37.75;17.50;;;;;;;7.16;76.28;102535.78;5074175;28;20032;-83
2022/03/01 10:44:59;;;;;;;41.13;15.90;;;;;;;7.17;76.60;102534.84;5090807;28;20044;-83
2022/03/01 10:47:25;;;;;;;36.53;17.08;;;;;;;7.28;77.02;102535.34;5057390;28;20404;-82
2022/03/01 10:50:00;;;;;;;38.85;16.83;;;;;;;7.64;74.58;102523.03;5095052;28;20028;-80
2022/03/01 10:52:32;;;;;;;49.63;19.17;;;;;;;7.89;75.30;102522.97;5078422;28;20036;-81
2022/03/01 10:54:58;;;;;;;42.70;17.05;;;;;;;8.00;74.25;102526.13;5078625;28;20050;-82
2022/03/01 10:57:23;;;;;;;43.25;17.92;;;;;;;7.85;73.61;102526.75;5078877;28;20479;-81
2022/03/01 10:59:50;;;;;;;41.25;18.38;;;;;;;7.91;74.45;102530.09;5078878;28;20387;-81
2022/03/01 11:02:17;;;;;;;42.60;16.52;;;;;;;8.06;73.95;102516.78;5066375;28;20028;-83
2022/03/01 11:04:42;;;;;;;45.78;17.75;;;;;;;8.28;73.46;102517.66;5081788;28;20040;-82
2022/03/01 11:07:10;;;;;;;40.30;16.70;;;;;;;8.06;71.32;102514.94;5096986;28;20055;-83
2022/03/01 11:09:36;;;;;;;37.50;16.75;;;;;;;8.41;70.96;102517.13;5069430;28;20115;-83